Terminal Aerodrome Forecast
Issued by NWS

Home | Current Version | Previous Version | Text Only | Print | Product List | Glossary On
Versions: 1 2 3 4 5 6 7 8 9 10 11 12 13 14 15 16 17 18 19 20 21 22 23 24 25
000
FTUS46 KLOX 260600 RRA
TAFLAX
TAF
KLAX 260637Z 2607/2712 VRB03KT P6SM FEW010 BKN150
     FM260900 VRB03KT 5SM BR OVC009
     FM261600 VRB03KT P6SM BKN012
     FM261800 25010KT P6SM SCT150
     FM270300 25006KT P6SM BKN012
     FM270900 VRB03KT 5SM BR OVC010=

USA.gov is the U.S. government's official web portal to all federal, state and local government web resources and services.